Kezdőlap
METAR-TAF:

METAR-TAF

Repülőterek :

Imphal, India

földrajzi szélesség: 24-45-36N, földrajzi hosszúság: 93-53-48E, magasság: 774 m

Jelenlegi meteorológiai megfigyelések

A jelentés 32 perccel ezelõtt készült, 03:30 UTC
Kelet-északkeleti szél 1 kt
Hőmérséklet 25°C
Páratartalom 47%
Légköri nyomás 1018 hPa
Látótávolság: 3500 m
Kevés felhő 10000 lábon
Száraz légköri homály,

METAR: VEIM 130330Z 06001KT 3500 HZ FEW100 25/13 Q1018 NOSIG

Idő: 09:32 (04:02 UTC)

Előrejelzés

A jelentés 8 órával és 2 perccel ezelõtt készült, 20:00 UTC
Az előrejelzés 12-én 21 óra UTC és 13-én 06 óra UTC között érvényes
Észak-északnyugati szél 3 kt
Látótávolság: 3000 m
Kevés felhő 1800 lábon
Szórványos felhőzet 10000 lábon
Párásság
13-én 03 óra UTC és 13-én 05 óra UTC között fokozatosan kialakuló
Kelet-délkeleti szél 5 kt
Látótávolság: 5000 m
Száraz légköri homály,

TAF: VEIM 122000Z 1221/1306 34003KT 3000 BR FEW018 SCT100 BECMG 1303/1305 12005KT 5000 HZ

Meteorológiai megfigyelések és előrejelzések több, mint 4000 repülőtéren (METAR és TAF jelentéseket).

A térképen piros és sárga pontok jelzik az elérhető meteorológiai állomásokat.

Mozgassa az egeret a pont fölött, hogy megjelenjen az állomás neve.

Azután kattintson az időjárási megfigyelések és előrejelzések megtekintéséhez.

A térkép megváltoztatása: kattintson a fekete keresztel jelölt zöld gombra ráközelítéshez, a vonallal jelölt zöld gombra távolításhoz, vagy a zöld nyilakra a szomszédos térképek eléréséhez.


METAR-TAF: